Time;durP1;ratioP1;P1;durP2;ratioP2;P2;SDS_P1;SDS_P2;PMS_P1;PMS_P2;Temp;Humidity;BMP_temperature;BMP_pressure;BME280_temperature;BME280_humidity;BME280_pressure;Samples;Min_cycle;Max_cycle;Signal;HPM_P1;HPM_P2
2023/09/03 00:01:17;;;;;;;12.30;10.23;;;14.50;99.90;;;;;;5052652;28;20275;-75
2023/09/03 00:03:43;;;;;;;10.40;9.40;;;14.60;99.90;;;;;;5052508;28;20923;-74
2023/09/03 00:06:10;;;;;;;10.57;9.57;;;14.50;99.90;;;;;;5052425;28;20202;-72
2023/09/03 00:08:38;;;;;;;11.97;10.17;;;14.40;99.90;;;;;;5052448;28;20248;-72
2023/09/03 00:11:04;;;;;;;14.97;9.73;;;14.40;99.90;;;;;;5052313;28;20600;-75
2023/09/03 00:13:31;;;;;;;10.53;9.20;;;14.40;99.90;;;;;;5052184;28;20198;-73
2023/09/03 00:15:58;;;;;;;10.23;9.13;;;14.40;99.90;;;;;;5052310;28;20224;-75
2023/09/03 00:18:24;;;;;;;11.13;9.63;;;14.50;99.90;;;;;;5052311;28;20201;-75
2023/09/03 00:20:58;;;;;;;10.50;9.30;;;14.50;99.90;;;;;;5052340;28;20267;-74
2023/09/03 00:23:24;;;;;;;11.37;9.97;;;14.40;99.90;;;;;;5052048;28;20688;-74
2023/09/03 00:25:52;;;;;;;10.03;8.90;;;14.40;99.90;;;;;;5052414;28;20198;-74
2023/09/03 00:28:19;;;;;;;14.87;10.33;;;14.30;99.90;;;;;;5052432;28;20201;-74
2023/09/03 00:30:46;;;;;;;11.43;9.93;;;14.40;99.90;;;;;;5052313;28;20202;-74
2023/09/03 00:33:12;;;;;;;11.40;9.43;;;14.30;99.90;;;;;;5052215;28;20609;-74
2023/09/03 00:35:40;;;;;;;14.07;10.53;;;14.30;99.90;;;;;;5052166;28;20205;-73
2023/09/03 00:38:07;;;;;;;12.00;10.27;;;14.30;99.90;;;;;;5052493;28;20673;-74
2023/09/03 00:40:38;;;;;;;10.90;9.80;;;14.40;99.90;;;;;;5056432;28;20206;-74
2023/09/03 00:43:06;;;;;;;12.57;10.00;;;14.40;99.90;;;;;;5056205;28;20221;-74
2023/09/03 00:45:34;;;;;;;10.50;9.50;;;14.40;99.90;;;;;;5056220;28;20247;-74
2023/09/03 00:48:00;;;;;;;11.47;9.30;;;14.50;99.90;;;;;;5056111;28;20267;-74
2023/09/03 00:50:29;;;;;;;12.03;9.27;;;14.50;99.90;;;;;;5055942;28;20205;-74
2023/09/03 00:52:56;;;;;;;11.10;9.20;;;14.50;99.90;;;;;;5056069;28;20197;-74
2023/09/03 00:55:24;;;;;;;13.53;9.70;;;14.50;99.90;;;;;;5056024;28;20243;-74
2023/09/03 00:57:51;;;;;;;11.23;9.93;;;14.40;99.90;;;;;;5055970;28;20393;-73
2023/09/03 01:00:19;;;;;;;11.50;10.10;;;14.30;99.90;;;;;;5055895;28;20209;-74
2023/09/03 01:02:48;;;;;;;12.67;9.43;;;14.30;99.90;;;;;;5055604;28;20769;-74
2023/09/03 01:05:14;;;;;;;13.13;9.93;;;14.20;99.90;;;;;;5056024;28;20225;-74
2023/09/03 01:07:41;;;;;;;17.90;11.03;;;14.20;99.90;;;;;;5055679;28;20213;-74
2023/09/03 01:10:08;;;;;;;14.33;10.97;;;14.10;99.90;;;;;;5055882;28;20198;-74
2023/09/03 01:12:38;;;;;;;13.87;10.20;;;14.10;99.90;;;;;;5055558;28;20255;-74
2023/09/03 01:15:13;;;;;;;13.30;10.97;;;14.10;99.90;;;;;;5055534;28;20206;-75
2023/09/03 01:17:46;;;;;;;10.70;9.60;;;14.10;99.90;;;;;;5055509;28;20244;-74
2023/09/03 01:20:16;;;;;;;14.10;11.37;;;14.00;99.90;;;;;;5055672;28;20271;-74
2023/09/03 01:23:13;;;;;;;13.80;10.13;;;14.00;99.90;;;;;;5055173;28;20636;-74
2023/09/03 01:25:58;;;;;;;19.20;10.73;;;13.90;99.90;;;;;;5055399;28;20654;-74
2023/09/03 01:28:28;;;;;;;11.10;9.87;;;13.90;99.90;;;;;;5055548;28;20193;-75
2023/09/03 01:30:57;;;;;;;11.53;10.33;;;13.80;99.90;;;;;;5055447;28;20210;-73
2023/09/03 01:33:27;;;;;;;14.23;10.03;;;13.80;99.90;;;;;;5055333;28;20232;-75
2023/09/03 01:35:55;;;;;;;12.07;10.83;;;13.90;99.90;;;;;;5056486;28;20205;-74
2023/09/03 01:38:22;;;;;;;13.53;10.50;;;14.00;99.90;;;;;;5059976;28;20263;-74
2023/09/03 01:40:49;;;;;;;11.43;9.73;;;14.00;99.90;;;;;;5055388;28;20215;-74
2023/09/03 01:43:16;;;;;;;11.20;9.77;;;14.00;99.90;;;;;;5055189;28;20225;-74
2023/09/03 01:45:54;;;;;;;10.73;9.70;;;13.90;99.90;;;;;;5055082;28;20620;-74
2023/09/03 01:48:29;;;;;;;13.97;10.27;;;14.00;99.90;;;;;;5054938;28;20267;-75
2023/09/03 01:51:07;;;;;;;10.20;9.17;;;14.00;99.90;;;;;;5054898;28;20199;-74
2023/09/03 01:53:39;;;;;;;12.77;8.77;;;14.10;99.90;;;;;;5054832;28;20661;-74
2023/09/03 01:56:08;;;;;;;10.17;8.77;;;14.10;99.90;;;;;;5055022;28;20608;-74
2023/09/03 01:58:36;;;;;;;10.73;9.30;;;14.00;99.90;;;;;;5054869;28;20197;-74
2023/09/03 02:01:05;;;;;;;9.73;8.67;;;13.90;99.90;;;;;;5054649;28;20256;-74
2023/09/03 02:03:33;;;;;;;9.30;7.77;;;13.90;99.90;;;;;;5054670;28;20229;-74
2023/09/03 02:05:59;;;;;;;10.00;8.90;;;13.90;99.90;;;;;;5054865;28;20251;-75
2023/09/03 02:08:26;;;;;;;9.20;7.97;;;13.80;99.90;;;;;;5054648;28;20612;-74
2023/09/03 02:10:53;;;;;;;10.10;8.87;;;13.70;99.90;;;;;;5054612;28;20259;-74
2023/09/03 02:13:19;;;;;;;11.60;9.20;;;13.70;99.90;;;;;;5054439;28;20201;-74
2023/09/03 02:15:46;;;;;;;11.60;9.00;;;13.60;99.90;;;;;;5054338;28;20201;-74
2023/09/03 02:18:14;;;;;;;13.10;9.13;;;13.60;99.90;;;;;;5054262;28;20660;-74
2023/09/03 02:20:40;;;;;;;9.73;8.37;;;13.60;99.90;;;;;;5054526;28;20202;-74
2023/09/03 02:23:07;;;;;;;10.67;8.73;;;13.60;99.90;;;;;;5053966;28;20291;-74
2023/09/03 02:25:34;;;;;;;12.77;9.77;;;13.60;99.90;;;;;;5054428;28;20248;-75
2023/09/03 02:28:00;;;;;;;12.27;9.27;;;13.50;99.90;;;;;;5054174;28;20720;-74
2023/09/03 02:30:27;;;;;;;11.77;9.07;;;13.50;99.90;;;;;;5054157;28;20255;-75
2023/09/03 02:32:54;;;;;;;11.07;9.13;;;13.50;99.90;;;;;;5053973;28;20198;-75
2023/09/03 02:35:22;;;;;;;13.33;9.57;;;13.50;99.90;;;;;;5054032;28;20198;-73
2023/09/03 02:37:49;;;;;;;12.40;9.80;;;13.60;99.90;;;;;;5054043;28;20243;-74
2023/09/03 02:40:16;;;;;;;14.00;10.43;;;13.50;99.90;;;;;;5054053;28;20278;-74
2023/09/03 02:42:42;;;;;;;15.13;10.10;;;13.40;99.90;;;;;;5053742;28;20222;-74
2023/09/03 02:45:09;;;;;;;13.43;10.10;;;13.50;99.90;;;;;;5054207;28;20206;-74
2023/09/03 02:47:36;;;;;;;13.87;10.20;;;13.50;99.90;;;;;;5053908;28;20197;-75
2023/09/03 02:50:03;;;;;;;13.13;10.00;;;13.50;99.90;;;;;;5053926;28;20267;-75
2023/09/03 02:52:31;;;;;;;15.90;10.80;;;13.40;99.90;;;;;;5053719;28;20193;-72
2023/09/03 02:54:57;;;;;;;12.47;9.63;;;13.30;99.90;;;;;;5053743;28;20201;-74
2023/09/03 02:57:24;;;;;;;15.67;10.27;;;13.30;99.90;;;;;;5053470;28;20538;-74
2023/09/03 02:59:51;;;;;;;15.33;10.83;;;13.30;99.90;;;;;;5053726;28;20198;-74
2023/09/03 03:02:17;;;;;;;14.67;10.63;;;13.30;99.90;;;;;;5052934;28;20225;-73
2023/09/03 03:04:44;;;;;;;14.53;10.03;;;13.30;99.90;;;;;;5053538;28;20255;-74
2023/09/03 03:07:10;;;;;;;14.80;9.60;;;13.20;99.90;;;;;;5053497;28;20587;-75
2023/09/03 03:09:38;;;;;;;13.73;10.47;;;13.20;99.90;;;;;;5053506;28;20252;-73
2023/09/03 03:12:06;;;;;;;18.80;10.17;;;13.20;99.90;;;;;;5053299;28;20201;-73
2023/09/03 03:14:32;;;;;;;11.80;9.40;;;13.30;99.90;;;;;;5053383;28;20197;-74
2023/09/03 03:16:59;;;;;;;14.97;9.60;;;13.40;99.90;;;;;;5053350;28;20244;-73
2023/09/03 03:19:26;;;;;;;12.83;8.73;;;13.40;99.90;;;;;;5053158;28;20252;-73
2023/09/03 03:21:52;;;;;;;11.50;8.77;;;13.40;99.90;;;;;;5052932;28;20229;-74
2023/09/03 03:24:20;;;;;;;13.03;8.77;;;13.50;99.90;;;;;;5053274;28;20650;-73
2023/09/03 03:26:48;;;;;;;11.70;9.60;;;13.40;99.90;;;;;;5053313;28;20274;-74
2023/09/03 03:29:15;;;;;;;12.57;9.80;;;13.40;99.90;;;;;;5052880;28;20657;-74
2023/09/03 03:31:43;;;;;;;12.00;9.77;;;13.30;99.90;;;;;;5053143;28;20201;-74
2023/09/03 03:34:09;;;;;;;17.50;11.57;;;13.20;99.90;;;;;;5053022;28;20197;-75
2023/09/03 03:36:36;;;;;;;12.17;9.77;;;13.10;99.90;;;;;;5052784;28;20197;-74
2023/09/03 03:39:03;;;;;;;11.33;10.13;;;13.10;99.90;;;;;;5052728;28;20201;-74
2023/09/03 03:41:29;;;;;;;13.50;9.97;;;13.10;99.90;;;;;;5052927;28;20251;-75
2023/09/03 03:43:57;;;;;;;10.67;9.00;;;13.10;99.90;;;;;;5052646;28;20225;-75
2023/09/03 03:46:24;;;;;;;13.33;9.60;;;13.20;99.90;;;;;;5052660;28;20658;-75
2023/09/03 03:48:50;;;;;;;9.87;8.87;;;13.20;99.90;;;;;;5052769;28;20244;-75
2023/09/03 03:51:17;;;;;;;12.03;9.00;;;13.10;99.90;;;;;;5052606;28;20255;-75
2023/09/03 03:53:44;;;;;;;9.37;8.43;;;13.10;99.90;;;;;;5052442;28;20205;-75
2023/09/03 03:56:12;;;;;;;9.40;8.27;;;13.00;99.90;;;;;;5052539;28;20790;-75
2023/09/03 03:58:41;;;;;;;10.57;8.37;;;13.00;99.90;;;;;;5052428;28;20243;-75
2023/09/03 04:01:16;;;;;;;9.00;8.10;;;13.00;99.90;;;;;;5052562;28;20197;-74
2023/09/03 04:03:43;;;;;;;24.80;9.27;;;12.90;99.90;;;;;;5052172;28;20217;-74
2023/09/03 04:06:10;;;;;;;15.70;9.53;;;12.90;99.90;;;;;;5052446;28;20202;-77
2023/09/03 04:08:38;;;;;;;11.80;9.80;;;12.90;99.90;;;;;;5052547;28;20197;-74
2023/09/03 04:11:06;;;;;;;17.90;10.03;;;13.00;99.90;;;;;;5052625;28;20201;-74
2023/09/03 04:13:33;;;;;;;9.80;8.80;;;13.10;99.90;;;;;;5052164;28;20194;-75
2023/09/03 04:16:00;;;;;;;10.77;9.67;;;13.10;99.90;;;;;;5052242;28;20815;-74
2023/09/03 04:18:28;;;;;;;12.10;9.47;;;13.10;99.90;;;;;;5052135;28;20251;-74
2023/09/03 04:20:57;;;;;;;14.23;9.27;;;13.10;99.90;;;;;;5051940;28;20198;-75
2023/09/03 04:23:23;;;;;;;14.77;9.23;;;13.10;99.90;;;;;;5052025;28;20237;-75
2023/09/03 04:25:51;;;;;;;12.97;8.73;;;13.20;99.90;;;;;;5051907;28;20661;-75
2023/09/03 04:28:18;;;;;;;9.83;8.63;;;13.20;99.90;;;;;;5052246;28;20278;-75
2023/09/03 04:30:45;;;;;;;13.33;8.70;;;13.20;99.90;;;;;;5052188;28;20210;-75
2023/09/03 04:33:12;;;;;;;9.67;7.57;;;13.20;99.90;;;;;;5052041;28;20220;-74
2023/09/03 04:35:40;;;;;;;15.50;8.60;;;13.30;99.90;;;;;;5052358;28;20564;-75
2023/09/03 04:38:06;;;;;;;8.53;7.57;;;13.20;99.90;;;;;;5052128;28;20201;-75
2023/09/03 04:40:35;;;;;;;9.43;8.00;;;13.30;99.90;;;;;;5052244;28;20201;-75
2023/09/03 04:43:02;;;;;;;9.70;7.97;;;13.20;99.90;;;;;;5052128;28;20221;-75
2023/09/03 04:45:28;;;;;;;9.13;7.70;;;13.20;99.90;;;;;;5051971;28;20255;-75
2023/09/03 04:47:55;;;;;;;9.73;8.73;;;13.30;99.90;;;;;;5051910;28;20194;-75
2023/09/03 04:50:22;;;;;;;11.47;8.10;;;13.30;99.90;;;;;;5052229;28;20825;-76
2023/09/03 04:52:50;;;;;;;8.30;7.33;;;13.40;99.90;;;;;;5051582;28;20635;-75
2023/09/03 04:55:17;;;;;;;9.10;7.70;;;13.40;99.90;;;;;;5052012;28;20202;-74
2023/09/03 04:57:43;;;;;;;10.40;8.00;;;13.30;99.90;;;;;;5051870;28;20198;-74
2023/09/03 05:00:11;;;;;;;9.83;7.93;;;13.20;99.90;;;;;;5051866;28;20202;-74
2023/09/03 05:02:38;;;;;;;8.17;7.37;;;13.20;99.90;;;;;;5051975;28;20618;-75
2023/09/03 05:05:05;;;;;;;9.93;8.10;;;13.10;99.90;;;;;;5051976;28;20194;-76
2023/09/03 05:07:32;;;;;;;15.30;8.77;;;13.10;99.90;;;;;;5052033;28;20190;-76
2023/09/03 05:10:00;;;;;;;14.70;9.70;;;13.10;99.90;;;;;;5051949;28;20198;-75
2023/09/03 05:12:27;;;;;;;10.73;8.83;;;13.10;99.90;;;;;;5051900;28;20252;-76
2023/09/03 05:14:54;;;;;;;13.67;9.60;;;13.10;99.90;;;;;;5051734;28;20276;-76
2023/09/03 05:17:21;;;;;;;13.33;9.70;;;13.20;99.90;;;;;;5052216;28;20244;-75
2023/09/03 05:19:48;;;;;;;12.43;9.87;;;13.20;99.90;;;;;;5051891;28;20197;-76
2023/09/03 05:22:15;;;;;;;11.53;9.17;;;13.30;99.90;;;;;;5051822;28;20271;-76
2023/09/03 05:24:41;;;;;;;11.13;8.90;;;13.40;99.90;;;;;;5052975;28;20226;-75
2023/09/03 05:27:09;;;;;;;11.20;8.10;;;13.50;99.90;;;;;;5055447;28;20193;-75
2023/09/03 05:29:36;;;;;;;11.03;8.10;;;13.50;99.90;;;;;;5055129;28;20619;-75
2023/09/03 05:32:02;;;;;;;8.97;8.00;;;13.60;99.90;;;;;;5055431;28;20205;-76
2023/09/03 05:34:29;;;;;;;9.43;7.97;;;13.70;99.90;;;;;;5055533;28;20239;-76
2023/09/03 05:36:56;;;;;;;9.23;7.50;;;13.80;99.90;;;;;;5055345;28;20592;-73
2023/09/03 05:39:23;;;;;;;8.03;6.83;;;13.80;99.90;;;;;;5055125;28;20206;-75
2023/09/03 05:41:49;;;;;;;8.63;6.43;;;13.90;99.90;;;;;;5055018;28;20666;-75
2023/09/03 05:44:17;;;;;;;7.20;6.33;;;13.90;99.90;;;;;;5054955;28;20225;-74
2023/09/03 05:46:44;;;;;;;11.90;6.53;;;14.00;99.90;;;;;;5055418;28;20202;-74
2023/09/03 05:49:11;;;;;;;7.07;6.27;;;14.10;99.90;;;;;;5055215;28;20194;-74
2023/09/03 05:51:37;;;;;;;7.10;5.90;;;14.20;99.90;;;;;;5054944;28;20275;-75
2023/09/03 05:54:04;;;;;;;7.83;5.93;;;14.20;99.90;;;;;;5054741;28;20255;-76
2023/09/03 05:56:31;;;;;;;9.27;6.37;;;14.30;99.90;;;;;;5054847;28;20201;-74
2023/09/03 05:59:03;;;;;;;13.33;5.60;;;14.40;99.90;;;;;;5054920;28;20198;-74
2023/09/03 06:01:32;;;;;;;6.17;5.50;;;14.40;99.90;;;;;;5054900;28;20200;-74
2023/09/03 06:04:02;;;;;;;6.03;5.40;;;14.50;99.90;;;;;;5054764;28;20229;-75
2023/09/03 06:06:29;;;;;;;8.10;5.17;;;14.60;99.90;;;;;;5054689;28;20292;-74
2023/09/03 06:08:56;;;;;;;6.70;5.63;;;14.60;99.90;;;;;;5054484;28;20650;-74
2023/09/03 06:11:22;;;;;;;5.60;5.10;;;14.60;99.90;;;;;;5054587;28;20335;-74
2023/09/03 06:13:49;;;;;;;6.43;5.43;;;14.70;99.90;;;;;;5054556;28;20202;-75
2023/09/03 06:16:16;;;;;;;7.30;5.28;;;14.80;99.90;;;;;;5054473;28;20255;-74
2023/09/03 06:18:44;;;;;;;5.90;4.95;;;14.90;99.90;;;;;;5054449;28;20198;-74
2023/09/03 06:21:10;;;;;;;5.38;4.88;;;15.00;99.90;;;;;;5054182;28;20201;-74
2023/09/03 06:23:37;;;;;;;5.53;5.00;;;15.10;99.90;;;;;;5054323;28;20275;-74
2023/09/03 06:26:03;;;;;;;5.07;4.57;;;15.10;99.90;;;;;;5054355;28;20225;-75
2023/09/03 06:28:31;;;;;;;6.72;4.78;;;15.10;99.90;;;;;;5054459;28;20626;-74
2023/09/03 06:30:59;;;;;;;5.20;4.40;;;15.10;99.90;;;;;;5054284;28;20205;-75
2023/09/03 06:33:25;;;;;;;6.25;5.65;;;15.30;99.90;;;;;;5054207;28;20292;-76
2023/09/03 06:35:53;;;;;;;5.63;5.07;;;15.50;99.90;;;;;;5053098;28;20227;-75
2023/09/03 06:38:20;;;;;;;5.97;4.65;;;15.70;99.90;;;;;;5054044;28;20194;-75
2023/09/03 06:40:48;;;;;;;5.07;4.63;;;15.90;99.90;;;;;;5054239;28;20198;-75
2023/09/03 06:43:15;;;;;;;9.07;4.63;;;15.90;99.90;;;;;;5053901;28;20275;-75
2023/09/03 06:45:43;;;;;;;6.95;4.68;;;16.00;99.90;;;;;;5053864;28;20234;-74
2023/09/03 06:48:09;;;;;;;6.50;4.55;;;16.10;99.90;;;;;;5053757;28;20221;-75
2023/09/03 06:50:36;;;;;;;5.03;4.53;;;16.10;99.90;;;;;;5053590;28;20201;-75
2023/09/03 06:53:04;;;;;;;6.65;4.38;;;16.30;99.90;;;;;;5053674;28;20604;-76
2023/09/03 06:55:32;;;;;;;6.97;4.65;;;16.50;99.90;;;;;;5053667;28;20264;-76
2023/09/03 06:57:59;;;;;;;4.60;4.20;;;16.70;99.90;;;;;;5053636;28;20244;-76
2023/09/03 07:00:25;;;;;;;5.05;4.30;;;16.80;99.90;;;;;;5053327;28;20284;-75
2023/09/03 07:02:52;;;;;;;4.80;4.40;;;16.90;99.90;;;;;;5053558;28;20198;-75
2023/09/03 07:05:18;;;;;;;4.70;4.28;;;16.90;99.90;;;;;;5053171;28;20279;-75
2023/09/03 07:07:45;;;;;;;5.13;4.53;;;17.00;99.90;;;;;;5053503;28;20206;-75
2023/09/03 07:10:13;;;;;;;5.22;4.72;;;17.20;99.90;;;;;;5053396;28;20228;-75
2023/09/03 07:12:40;;;;;;;5.60;4.38;;;17.50;99.90;;;;;;5053232;28;20256;-75
2023/09/03 07:15:07;;;;;;;4.90;4.32;;;17.80;99.90;;;;;;5053164;28;20205;-75
2023/09/03 07:17:34;;;;;;;4.07;3.78;;;18.10;99.90;;;;;;5052961;28;20680;-76
2023/09/03 07:20:02;;;;;;;5.72;4.20;;;18.30;99.90;;;;;;5052915;28;20726;-75
2023/09/03 07:22:29;;;;;;;4.40;4.00;;;18.20;99.90;;;;;;5052949;28;20312;-75
2023/09/03 07:24:55;;;;;;;5.18;4.20;;;18.50;99.90;;;;;;5052794;28;20276;-75
2023/09/03 07:27:23;;;;;;;4.53;4.13;;;18.80;99.90;;;;;;5052902;28;20265;-74
2023/09/03 07:29:53;;;;;;;4.10;3.42;;;18.80;99.90;;;;;;5052779;28;20279;-75
2023/09/03 07:32:21;;;;;;;4.55;3.90;;;18.70;99.90;;;;;;5052980;28;20202;-75
2023/09/03 07:34:48;;;;;;;5.28;3.95;;;18.80;99.90;;;;;;5053231;28;20596;-75
2023/09/03 07:37:15;;;;;;;8.10;3.67;;;18.90;99.90;;;;;;5052839;28;20219;-75
2023/09/03 07:39:42;;;;;;;4.05;3.65;;;19.30;99.90;;;;;;5052803;28;20201;-75
2023/09/03 07:42:08;;;;;;;4.53;3.58;;;19.30;99.90;;;;;;5052705;28;20625;-76
2023/09/03 07:44:36;;;;;;;4.72;3.22;;;19.50;99.90;;;;;;5052667;28;20225;-75
2023/09/03 07:47:03;;;;;;;3.95;3.35;;;19.50;99.90;;;;;;5052488;28;20198;-75
2023/09/03 07:49:30;;;;;;;3.60;3.30;;;19.80;99.90;;;;;;5052781;28;20260;-75
2023/09/03 07:51:56;;;;;;;3.80;3.40;;;20.00;99.90;;;;;;5052633;28;20197;-74
2023/09/03 07:54:23;;;;;;;4.00;3.33;;;19.90;99.90;;;;;;5052666;28;20214;-74
2023/09/03 07:56:49;;;;;;;4.85;3.42;;;20.30;99.90;;;;;;5052335;28;20600;-75
2023/09/03 07:59:16;;;;;;;3.17;2.72;;;20.30;99.90;;;;;;5052367;28;20194;-73
2023/09/03 08:01:44;;;;;;;3.20;3.00;;;20.20;99.90;;;;;;5052362;28;20197;-73
2023/09/03 08:04:11;;;;;;;5.70;2.92;;;20.20;99.90;;;;;;5052299;28;20221;-74
2023/09/03 08:06:37;;;;;;;3.35;3.03;;;20.50;99.90;;;;;;5051906;28;20197;-74
2023/09/03 08:09:05;;;;;;;3.67;2.78;;;20.70;99.90;;;;;;5052482;28;20251;-73
2023/09/03 08:11:32;;;;;;;2.92;2.72;;;20.60;99.90;;;;;;5052304;28;20672;-74
2023/09/03 08:14:00;;;;;;;3.50;2.85;;;20.80;99.90;;;;;;5052331;28;20206;-74
2023/09/03 08:16:27;;;;;;;3.17;2.88;;;21.20;99.90;;;;;;5052540;28;20209;-75
2023/09/03 08:18:55;;;;;;;4.15;2.60;;;21.70;99.90;;;;;;5052563;28;20206;-75
2023/09/03 08:21:22;;;;;;;2.70;2.50;;;22.00;99.90;;;;;;5052379;28;20197;-75
2023/09/03 08:23:48;;;;;;;2.72;2.53;;;21.80;99.90;;;;;;5051997;28;20202;-77
2023/09/03 08:26:15;;;;;;;3.95;3.05;;;21.90;99.90;;;;;;5052327;28;20197;-74
2023/09/03 08:28:41;;;;;;;2.75;2.55;;;22.10;99.90;;;;;;5052485;28;20200;-75
2023/09/03 08:31:08;;;;;;;2.65;2.33;;;22.40;99.90;;;;;;5052280;28;20608;-75
2023/09/03 08:33:35;;;;;;;5.40;2.55;;;22.80;99.90;;;;;;5052238;28;20205;-74
2023/09/03 08:36:03;;;;;;;1.60;1.50;;;23.10;99.90;;;;;;5050376;28;20661;-74
2023/09/03 08:38:29;;;;;;;2.33;2.13;;;23.40;99.90;;;;;;5048981;28;20244;-74
2023/09/03 08:40:56;;;;;;;3.53;1.65;;;23.30;99.90;;;;;;5048265;28;20205;-74
2023/09/03 08:43:27;;;;;;;1.67;1.58;;;23.10;99.90;;;;;;5048786;28;20205;-74
2023/09/03 08:45:57;;;;;;;2.40;1.80;;;23.10;99.90;;;;;;5048752;28;20229;-73
2023/09/03 08:48:24;;;;;;;2.72;2.08;;;23.20;99.90;;;;;;5048732;28;20198;-73
2023/09/03 08:50:51;;;;;;;1.90;1.80;;;23.40;99.90;;;;;;5048923;28;20271;-74
2023/09/03 08:53:20;;;;;;;1.80;1.70;;;23.50;99.90;;;;;;5048562;28;20256;-73
2023/09/03 08:55:47;;;;;;;1.50;1.40;;;23.30;99.90;;;;;;5049146;28;20210;-74
2023/09/03 08:58:15;;;;;;;1.60;1.50;;;23.10;99.90;;;;;;5049174;28;20213;-74
2023/09/03 09:00:43;;;;;;;1.58;1.48;;;23.50;99.90;;;;;;5052026;28;20271;-74
2023/09/03 09:03:13;;;;;;;1.73;1.63;;;23.70;99.90;;;;;;5052962;28;20228;-75
2023/09/03 09:05:42;;;;;;;2.25;1.80;;;24.30;99.90;;;;;;5052661;28;20226;-75
2023/09/03 09:08:09;;;;;;;1.77;1.67;;;24.80;99.90;;;;;;5052142;28;20198;-77
2023/09/03 09:10:43;;;;;;;2.30;1.70;;;25.10;99.90;;;;;;5052406;28;20756;-75
2023/09/03 09:13:13;;;;;;;1.73;1.50;;;24.90;99.90;;;;;;5052278;28;20714;-73
2023/09/03 09:15:42;;;;;;;1.75;1.63;;;25.00;99.90;;;;;;5052398;28;20204;-74
2023/09/03 09:18:09;;;;;;;1.67;1.55;;;24.40;99.90;;;;;;5051469;28;20250;-73
2023/09/03 09:20:38;;;;;;;2.08;1.75;;;24.50;99.90;;;;;;5055249;28;20546;-74
2023/09/03 09:23:05;;;;;;;3.80;2.05;;;24.70;99.90;;;;;;5055289;28;20255;-73
2023/09/03 09:25:31;;;;;;;2.53;2.10;;;24.80;99.90;;;;;;5055493;28;20221;-74
2023/09/03 09:28:10;;;;;;;1.88;1.75;;;25.20;99.90;;;;;;5055679;28;20547;-74
2023/09/03 09:30:37;;;;;;;1.70;1.60;;;24.80;99.90;;;;;;5055596;28;20193;-74
2023/09/03 09:33:05;;;;;;;1.63;1.52;;;24.50;99.90;;;;;;5055277;28;20202;-73
2023/09/03 09:35:32;;;;;;;2.00;1.80;;;24.60;99.90;;;;;;5055483;28;20201;-75
2023/09/03 09:38:04;;;;;;;2.20;2.00;;;24.90;99.90;;;;;;5055260;28;20612;-74
2023/09/03 09:40:31;;;;;;;2.15;1.95;;;25.50;99.90;;;;;;5060058;28;20204;-73
2023/09/03 09:43:03;;;;;;;4.18;1.73;;;25.10;99.90;;;;;;5055095;28;20263;-75
2023/09/03 09:45:31;;;;;;;2.08;1.98;;;25.20;99.90;;;;;;5055237;28;20233;-75
2023/09/03 09:48:05;;;;;;;1.75;1.60;;;25.20;99.90;;;;;;5055048;28;20201;-75
2023/09/03 09:50:32;;;;;;;1.90;1.65;;;25.60;99.90;;;;;;5054979;28;20204;-76
2023/09/03 09:52:59;;;;;;;2.00;1.80;;;25.20;99.90;;;;;;5055070;28;20198;-76
2023/09/03 09:55:27;;;;;;;1.95;1.80;;;25.80;99.90;;;;;;5055152;28;20620;-74
2023/09/03 09:57:54;;;;;;;2.45;1.90;;;26.40;99.90;;;;;;5054949;28;20201;-75
2023/09/03 10:00:34;;;;;;;3.00;1.63;;;26.60;99.90;;;;;;5054656;28;20194;-75
2023/09/03 10:03:00;;;;;;;1.73;1.63;;;26.90;99.90;;;;;;5054864;28;20193;-74
2023/09/03 10:05:27;;;;;;;1.75;1.65;;;27.30;99.90;;;;;;5054522;28;20721;-75
2023/09/03 10:07:54;;;;;;;1.88;1.73;;;27.40;99.90;;;;;;5054681;28;20711;-75
2023/09/03 10:10:21;;;;;;;1.45;1.35;;;27.80;99.90;;;;;;5054620;28;20790;-74
2023/09/03 10:12:48;;;;;;;1.70;1.60;;;27.80;99.90;;;;;;5054528;28;20248;-74
2023/09/03 10:15:15;;;;;;;2.13;1.55;;;27.60;99.90;;;;;;5054800;28;20198;-75
2023/09/03 10:17:49;;;;;;;2.35;1.40;;;27.50;99.90;;;;;;5054770;28;20194;-74
2023/09/03 10:20:17;;;;;;;1.58;1.48;;;27.70;99.90;;;;;;5054913;28;20209;-74
2023/09/03 10:22:46;;;;;;;1.67;1.55;;;28.10;99.90;;;;;;5054423;28;20252;-74
2023/09/03 10:25:15;;;;;;;1.60;1.50;;;28.30;99.90;;;;;;5054350;28;20229;-74
2023/09/03 10:27:51;;;;;;;1.75;1.52;;;28.50;99.90;;;;;;5054919;28;20185;-74
2023/09/03 10:30:24;;;;;;;1.60;1.50;;;27.80;99.90;;;;;;5054542;28;20197;-75
2023/09/03 10:32:53;;;;;;;3.47;1.80;;;27.30;99.90;;;;;;5054265;28;20649;-74
2023/09/03 10:35:20;;;;;;;2.55;1.58;;;27.00;99.90;;;;;;5054226;28;20703;-74
2023/09/03 10:37:49;;;;;;;2.08;1.60;;;26.90;99.90;;;;;;5054194;28;20232;-75
2023/09/03 10:40:21;;;;;;;1.85;1.65;;;26.70;99.90;;;;;;5054447;28;20289;-74
2023/09/03 10:42:48;;;;;;;1.60;1.50;;;27.00;99.90;;;;;;5054214;28;20669;-75
2023/09/03 10:45:15;;;;;;;2.35;1.58;;;26.90;99.90;;;;;;5054225;28;20225;-75
2023/09/03 10:48:03;;;;;;;1.80;1.70;;;26.30;99.90;;;;;;5054337;28;20200;-75
2023/09/03 10:50:48;;;;;;;1.60;1.50;;;27.50;99.90;;;;;;5054796;28;20201;-74
2023/09/03 10:53:37;;;;;;;2.00;1.70;;;27.50;99.90;;;;;;5054264;28;20224;-75
2023/09/03 10:56:08;;;;;;;1.95;1.58;;;27.00;99.90;;;;;;5048113;28;20280;-74
2023/09/03 10:58:35;;;;;;;2.13;1.40;;;27.40;99.90;;;;;;5053771;28;20194;-75
2023/09/03 11:01:18;;;;;;;1.70;1.60;;;27.80;99.90;;;;;;5054061;28;20255;-76
2023/09/03 11:03:48;;;;;;;3.38;3.08;;;28.50;99.90;;;;;;5053863;28;20687;-75
2023/09/03 11:06:16;;;;;;;1.65;1.55;;;29.20;99.90;;;;;;5053846;28;20229;-75
2023/09/03 11:08:42;;;;;;;1.80;1.70;;;29.80;99.90;;;;;;5053841;28;20201;-75
2023/09/03 11:11:11;;;;;;;1.80;1.70;;;28.70;99.90;;;;;;5053582;28;20200;-75
2023/09/03 11:13:37;;;;;;;2.38;1.40;;;28.90;99.90;;;;;;5053880;28;20202;-75
2023/09/03 11:16:04;;;;;;;1.83;1.50;;;28.80;99.90;;;;;;5054003;28;20202;-75
2023/09/03 11:18:32;;;;;;;2.08;1.70;;;29.50;99.90;;;;;;5053695;28;20201;-75
2023/09/03 11:21:00;;;;;;;2.35;2.15;;;30.60;99.90;;;;;;5053531;28;20207;-75
2023/09/03 11:23:29;;;;;;;2.70;1.63;;;31.30;99.90;;;;;;5052922;28;20233;-74
2023/09/03 11:25:56;;;;;;;2.40;1.67;;;30.90;99.90;;;;;;5053168;28;20225;-75
2023/09/03 11:28:22;;;;;;;1.90;1.67;;;29.80;99.90;;;;;;5053551;28;20201;-75
2023/09/03 11:30:58;;;;;;;1.92;1.70;;;28.60;99.90;;;;;;5053473;28;20198;-75
2023/09/03 11:33:26;;;;;;;1.80;1.70;;;27.60;99.90;;;;;;5053301;28;20727;-74
2023/09/03 11:35:54;;;;;;;2.97;1.70;;;27.80;99.90;;;;;;5053136;28;20728;-75
2023/09/03 11:38:25;;;;;;;1.73;1.60;;;29.50;99.90;;;;;;5053124;28;20236;-74
2023/09/03 11:40:55;;;;;;;1.80;1.70;;;30.10;99.90;;;;;;5053319;28;20197;-75
2023/09/03 11:43:21;;;;;;;2.63;1.80;;;28.90;99.90;;;;;;5053202;28;20202;-76
2023/09/03 11:45:48;;;;;;;1.70;1.60;;;27.80;99.90;;;;;;5053159;28;20225;-76
2023/09/03 11:48:15;;;;;;;4.13;1.70;;;29.40;99.90;;;;;;5053040;28;20197;-75
2023/09/03 11:50:41;;;;;;;1.98;1.63;;;30.10;99.90;;;;;;5053001;28;20193;-76
2023/09/03 11:53:10;;;;;;;1.95;1.70;;;30.30;99.90;;;;;;5053165;28;20249;-76
2023/09/03 11:55:42;;;;;;;3.15;1.83;;;30.30;99.90;;;;;;5053361;28;20197;-74
2023/09/03 11:58:11;;;;;;;1.95;1.80;;;29.20;99.90;;;;;;5052924;28;20202;-74
2023/09/03 12:00:38;;;;;;;2.05;1.85;;;28.60;99.90;;;;;;5052770;28;20292;-74
2023/09/03 12:03:06;;;;;;;2.25;1.60;;;30.10;99.90;;;;;;5052752;28;20248;-74
2023/09/03 12:05:34;;;;;;;1.50;1.40;;;30.50;99.90;;;;;;5052587;28;20221;-75
2023/09/03 12:08:02;;;;;;;1.85;1.60;;;31.00;99.90;;;;;;5052722;28;20201;-75
2023/09/03 12:10:29;;;;;;;1.83;1.65;;;29.70;99.90;;;;;;5052826;28;20200;-75
2023/09/03 12:12:59;;;;;;;2.20;1.50;;;29.00;99.90;;;;;;5052658;28;20227;-74
2023/09/03 12:15:29;;;;;;;1.92;1.65;;;28.80;99.90;;;;;;5052630;28;20213;-75
2023/09/03 12:18:06;;;;;;;2.28;1.95;;;29.60;99.20;;;;;;5052576;28;20669;-75
2023/09/03 12:20:38;;;;;;;1.73;1.52;;;29.30;99.60;;;;;;5052606;28;20197;-75
2023/09/03 12:23:09;;;;;;;1.90;1.70;;;29.80;98.50;;;;;;5052224;28;20713;-75
2023/09/03 12:25:36;;;;;;;2.25;1.75;;;30.20;98.70;;;;;;5052335;28;20221;-75
2023/09/03 12:28:05;;;;;;;3.97;1.60;;;29.60;99.10;;;;;;5052200;28;20197;-75
2023/09/03 12:30:59;;;;;;;1.77;1.60;;;30.20;98.60;;;;;;5052602;28;20251;-75
2023/09/03 12:33:27;;;;;;;1.80;1.70;;;31.20;97.90;;;;;;5052426;28;20676;-75
2023/09/03 12:36:07;;;;;;;1.67;1.58;;;29.80;95.70;;;;;;5055918;28;20225;-75
2023/09/03 12:38:53;;;;;;;1.90;1.80;;;29.90;96.20;;;;;;5056429;28;20197;-74
2023/09/03 12:41:19;;;;;;;1.73;1.63;;;29.70;96.00;;;;;;5056648;28;20212;-75
2023/09/03 12:43:47;;;;;;;3.53;2.08;;;30.10;96.20;;;;;;5056459;28;20197;-75
2023/09/03 12:46:14;;;;;;;2.10;1.90;;;30.80;96.20;;;;;;5056292;28;20267;-75
2023/09/03 12:48:42;;;;;;;3.15;2.00;;;31.00;95.30;;;;;;5056093;28;20197;-75